Time;durP1;ratioP1;P1;durP2;ratioP2;P2;SDS_P1;SDS_P2;PMS_P1;PMS_P2;Temp;Humidity;BMP_temperature;BMP_pressure;BME280_temperature;BME280_humidity;BME280_pressure;Samples;Min_cycle;Max_cycle;Signal;HPM_P1;HPM_P2
2022/06/16 00:02:22;;;;;;;7.88;3.13;;;26.80;43.50;;;;;;7370739;19;20025;-77
2022/06/16 00:04:51;;;;;;;5.50;3.10;;;26.80;43.80;;;;;;7372149;19;20018;-77
2022/06/16 00:07:20;;;;;;;9.63;3.53;;;26.80;43.80;;;;;;7371619;19;20105;-77
2022/06/16 00:09:48;;;;;;;6.80;3.53;;;26.80;43.90;;;;;;7371353;19;20105;-77
2022/06/16 00:12:21;;;;;;;6.35;3.40;;;26.70;43.90;;;;;;7370461;19;20018;-77
2022/06/16 00:14:50;;;;;;;8.13;3.20;;;26.70;43.90;;;;;;7395199;19;20022;-76
2022/06/16 00:17:21;;;;;;;6.93;3.15;;;26.70;44.20;;;;;;7371149;19;20078;-77
2022/06/16 00:19:50;;;;;;;;;;;26.70;44.30;;;;;;7374690;19;20070;-75
2022/06/16 00:22:18;;;;;;;6.97;4.03;;;26.80;44.30;;;;;;7374231;19;19928;-77
2022/06/16 00:24:47;;;;;;;8.13;3.60;;;26.70;44.20;;;;;;7373788;19;20018;-77
2022/06/16 00:27:16;;;;;;;5.70;3.28;;;26.70;44.50;;;;;;7373756;19;20040;-77
2022/06/16 00:29:44;;;;;;;5.38;3.22;;;26.80;44.50;;;;;;7393267;19;20487;-77
2022/06/16 00:32:13;;;;;;;7.88;3.20;;;26.80;44.60;;;;;;7373332;19;20030;-77
2022/06/16 00:34:44;;;;;;;6.55;3.35;;;26.70;44.50;;;;;;7371528;19;20021;-77
2022/06/16 00:37:13;;;;;;;5.68;3.17;;;26.70;44.70;;;;;;7370885;19;20022;-77
2022/06/16 00:39:42;;;;;;;5.03;3.15;;;26.70;44.70;;;;;;7370415;19;20422;-77
2022/06/16 00:42:12;;;;;;;7.05;3.83;;;26.60;44.80;;;;;;7372784;19;20026;-77
2022/06/16 00:44:44;;;;;;;6.40;3.53;;;26.60;44.90;;;;;;7394526;19;20042;-77
2022/06/16 00:47:13;;;;;;;8.40;3.85;;;26.50;45.00;;;;;;7373863;19;20469;-76
2022/06/16 00:49:46;;;;;;;5.18;3.10;;;26.50;45.20;;;;;;7372067;19;20085;-77
2022/06/16 00:52:18;;;;;;;7.72;4.07;;;26.50;45.20;;;;;;7373885;19;20089;-76
2022/06/16 00:54:52;;;;;;;7.72;3.45;;;26.50;45.20;;;;;;7371750;19;20043;-77
2022/06/16 00:57:25;;;;;;;7.38;3.80;;;26.50;45.40;;;;;;7370664;19;20035;-77
2022/06/16 00:59:54;;;;;;;6.28;3.65;;;26.50;45.50;;;;;;7393271;19;20085;-77
2022/06/16 01:02:24;;;;;;;9.25;3.88;;;26.40;45.60;;;;;;7372505;19;20654;-77
2022/06/16 01:04:53;;;;;;;9.05;3.58;;;26.40;45.70;;;;;;7370668;19;20132;-77
2022/06/16 01:07:26;;;;;;;8.00;4.00;;;26.40;45.70;;;;;;7371605;19;20007;-77
2022/06/16 01:09:56;;;;;;;8.02;3.92;;;26.30;45.60;;;;;;7371451;19;20026;-77
2022/06/16 01:15:48;;;;;;;6.97;4.05;;;26.40;46.00;;;;;;7370311;19;20026;-77
2022/06/16 01:18:27;;;;;;;6.72;3.42;;;26.40;46.00;;;;;;7369623;19;20681;-77
2022/06/16 01:21:06;;;;;;;9.95;3.72;;;26.40;46.10;;;;;;7391258;19;20341;-77
2022/06/16 01:24:06;;;;;;;5.95;3.40;;;26.30;45.80;;;;;;7371415;19;20022;-77
2022/06/16 01:27:05;;;;;;;6.32;3.53;;;26.30;46.00;;;;;;7371890;19;20023;-77
2022/06/16 01:29:42;;;;;;;8.13;3.90;;;26.30;46.10;;;;;;7372294;19;20090;-77
2022/06/16 01:32:17;;;;;;;5.47;3.53;;;26.20;46.10;;;;;;7369752;19;20018;-77
2022/06/16 01:34:51;;;;;;;8.82;3.60;;;26.20;46.00;;;;;;7369231;19;20166;-77
2022/06/16 01:37:29;;;;;;;8.60;3.63;;;26.20;46.10;;;;;;7373111;19;20027;-77
2022/06/16 01:40:03;;;;;;;7.00;3.50;;;26.20;46.10;;;;;;7370422;19;20082;-77
2022/06/16 01:42:38;;;;;;;9.98;4.03;;;26.10;46.10;;;;;;7370141;19;20999;-77
2022/06/16 01:45:16;;;;;;;6.20;3.83;;;26.10;46.00;;;;;;7391889;19;20026;-77
2022/06/16 01:47:51;;;;;;;8.25;3.65;;;26.00;46.50;;;;;;7372011;19;20053;-77
2022/06/16 01:50:25;;;;;;;5.60;3.95;;;26.00;46.70;;;;;;7370636;19;20070;-77
2022/06/16 01:52:57;;;;;;;8.38;4.10;;;26.00;46.60;;;;;;7368632;19;20177;-77
2022/06/16 01:55:32;;;;;;;11.80;3.88;;;26.00;46.60;;;;;;7371004;19;20015;-77
2022/06/16 01:58:07;;;;;;;8.15;3.45;;;25.90;46.60;;;;;;7369372;19;20033;-76
2022/06/16 02:00:38;;;;;;;7.72;3.72;;;25.80;46.60;;;;;;7369154;19;20781;-77
2022/06/16 02:03:11;;;;;;;7.85;3.95;;;25.80;46.90;;;;;;7389416;19;20102;-77
2022/06/16 02:05:45;;;;;;;6.15;3.80;;;25.80;47.00;;;;;;7370440;19;20389;-76
2022/06/16 02:08:18;;;;;;;7.50;3.92;;;25.80;46.90;;;;;;7369331;19;21285;-76
2022/06/16 02:10:51;;;;;;;5.53;3.67;;;25.70;47.00;;;;;;7368373;19;20081;-76
2022/06/16 02:13:24;;;;;;;5.70;3.83;;;25.60;47.20;;;;;;7369511;19;20010;-76
2022/06/16 02:16:00;;;;;;;6.30;3.70;;;25.60;47.20;;;;;;7368734;19;20094;-77
2022/06/16 02:18:31;;;;;;;7.82;4.05;;;25.50;47.20;;;;;;7370497;19;20027;-77
2022/06/16 02:21:04;;;;;;;7.80;4.20;;;25.50;47.20;;;;;;7392469;19;20101;-76
2022/06/16 02:23:36;;;;;;;9.15;4.10;;;25.50;47.20;;;;;;7369749;19;20011;-76
2022/06/16 02:26:05;;;;;;;6.85;3.67;;;25.60;47.40;;;;;;7368400;19;20015;-76
2022/06/16 02:28:45;;;;;;;8.65;4.22;;;25.60;47.40;;;;;;7369458;19;20101;-76
2022/06/16 02:31:34;;;;;;;6.40;3.88;;;25.60;47.50;;;;;;7368746;19;20109;-76
2022/06/16 02:34:19;;;;;;;7.22;4.07;;;25.50;47.60;;;;;;7368912;19;20101;-76
2022/06/16 02:37:13;;;;;;;8.10;3.95;;;25.50;47.60;;;;;;7369417;19;20082;-77
2022/06/16 02:40:02;;;;;;;8.68;4.07;;;25.50;47.70;;;;;;7368558;19;20644;-77
2022/06/16 02:42:38;;;;;;;8.38;4.13;;;25.50;48.20;;;;;;7369092;19;20384;-77
2022/06/16 02:45:18;;;;;;;9.10;3.80;;;25.50;47.50;;;;;;7389519;19;20053;-76
2022/06/16 02:48:06;;;;;;;9.30;4.93;;;25.40;47.50;;;;;;7368543;19;20018;-77
2022/06/16 02:50:45;;;;;;;8.88;3.90;;;25.40;47.50;;;;;;7367775;19;20406;-76
2022/06/16 02:53:25;;;;;;;6.35;4.13;;;25.40;47.50;;;;;;7369231;19;21124;-76
2022/06/16 02:56:00;;;;;;;8.30;3.95;;;25.40;47.70;;;;;;7367506;19;20010;-77
2022/06/16 02:58:31;;;;;;;12.68;4.30;;;25.40;47.70;;;;;;7366628;19;20022;-77
2022/06/16 03:01:02;;;;;;;5.00;3.70;;;25.30;47.80;;;;;;7368074;19;20014;-77
2022/06/16 03:03:36;;;;;;;6.33;3.80;;;25.30;48.00;;;;;;7369510;19;20022;-76
2022/06/16 03:06:06;;;;;;;9.27;4.13;;;25.20;48.00;;;;;;7389725;19;20620;-77
2022/06/16 03:08:42;;;;;;;6.10;3.97;;;25.20;48.10;;;;;;7365798;19;20011;-76
2022/06/16 03:11:13;;;;;;;6.45;3.75;;;25.20;48.00;;;;;;7367336;19;20029;-76
2022/06/16 03:13:42;;;;;;;8.18;4.20;;;25.20;48.10;;;;;;7369444;19;20045;-77
2022/06/16 03:16:13;;;;;;;8.23;4.47;;;25.20;48.10;;;;;;7368942;19;20018;-77
2022/06/16 03:18:44;;;;;;;6.57;4.00;;;25.10;48.20;;;;;;7368650;19;20018;-77
2022/06/16 03:21:13;;;;;;;6.10;4.20;;;25.10;48.30;;;;;;7379788;19;20062;-76
2022/06/16 03:23:42;;;;;;;9.27;4.40;;;25.10;48.40;;;;;;7405120;19;20022;-76
2022/06/16 03:26:10;;;;;;;6.70;3.70;;;25.10;48.50;;;;;;7373445;19;20023;-76
2022/06/16 03:28:39;;;;;;;13.15;4.47;;;25.00;48.50;;;;;;7372275;19;20078;-76
2022/06/16 03:31:08;;;;;;;6.75;4.03;;;25.00;48.60;;;;;;7368595;19;20091;-76
2022/06/16 03:33:37;;;;;;;7.32;3.97;;;24.90;48.70;;;;;;7367715;19;20021;-77
2022/06/16 03:36:08;;;;;;;9.98;4.22;;;24.90;48.90;;;;;;7388675;19;20086;-76
2022/06/16 03:38:42;;;;;;;6.90;3.95;;;24.80;48.90;;;;;;7365070;19;20095;-76
2022/06/16 03:41:11;;;;;;;9.95;4.53;;;24.80;49.00;;;;;;7367703;19;20085;-76
2022/06/16 03:43:41;;;;;;;7.05;4.10;;;24.70;49.20;;;;;;7367216;19;20077;-76
2022/06/16 03:46:11;;;;;;;6.43;4.22;;;24.70;49.30;;;;;;7374802;19;20015;-76
2022/06/16 03:48:41;;;;;;;5.37;4.07;;;24.70;49.90;;;;;;7375526;19;20038;-77
2022/06/16 03:51:12;;;;;;;6.05;3.92;;;24.60;49.40;;;;;;7380829;19;20018;-76
2022/06/16 03:53:41;;;;;;;11.45;4.32;;;24.60;49.40;;;;;;7395381;19;20564;-76
2022/06/16 03:56:10;;;;;;;9.50;4.53;;;24.60;49.50;;;;;;7372995;19;20106;-76
2022/06/16 03:58:39;;;;;;;7.70;3.97;;;24.70;49.50;;;;;;7372820;19;20509;-75
2022/06/16 04:01:08;;;;;;;7.35;4.30;;;24.60;49.40;;;;;;7372572;19;20098;-76
2022/06/16 04:06:21;;;;;;;10.88;4.43;;;24.60;49.50;;;;;;7371468;19;20495;-76
2022/06/16 04:08:50;;;;;;;8.80;4.32;;;24.60;49.50;;;;;;7395704;19;20018;-76
2022/06/16 04:11:31;;;;;;;10.07;4.47;;;24.60;49.60;;;;;;7375830;19;20078;-76
2022/06/16 04:14:04;;;;;;;8.35;4.25;;;24.60;49.70;;;;;;7374474;19;20010;-76
2022/06/16 04:16:35;;;;;;;9.20;4.80;;;24.50;49.70;;;;;;7373948;19;20024;-76
2022/06/16 04:19:05;;;;;;;9.43;4.60;;;24.50;49.80;;;;;;7374236;19;20455;-76
2022/06/16 04:21:39;;;;;;;7.57;4.00;;;24.50;49.60;;;;;;7371985;19;20441;-76
2022/06/16 04:24:09;;;;;;;10.95;4.43;;;24.50;49.80;;;;;;7395213;19;20022;-76
2022/06/16 04:26:42;;;;;;;10.85;4.72;;;24.50;49.80;;;;;;7370189;19;20611;-77
2022/06/16 04:29:17;;;;;;;11.20;4.72;;;24.40;49.90;;;;;;7373835;19;20031;-77
2022/06/16 04:31:46;;;;;;;8.63;4.22;;;24.40;50.00;;;;;;7371713;19;20445;-77
2022/06/16 04:34:23;;;;;;;6.82;4.32;;;24.40;50.10;;;;;;7370634;19;20051;-77
2022/06/16 04:36:55;;;;;;;11.48;4.35;;;24.40;50.20;;;;;;7373704;19;20072;-77
2022/06/16 04:39:26;;;;;;;8.63;4.18;;;24.40;50.20;;;;;;7375338;19;20019;-77
2022/06/16 04:41:56;;;;;;;8.15;4.30;;;24.40;50.40;;;;;;7390732;19;20019;-77
2022/06/16 04:44:28;;;;;;;11.48;4.57;;;24.50;50.50;;;;;;7372214;19;20082;-77
2022/06/16 04:46:57;;;;;;;11.20;4.65;;;24.50;50.60;;;;;;7370095;19;20406;-77
2022/06/16 04:49:25;;;;;;;8.25;4.18;;;24.50;50.80;;;;;;7372184;19;20111;-77
2022/06/16 04:51:57;;;;;;;10.50;4.93;;;24.50;50.80;;;;;;7371571;19;20036;-76
2022/06/16 04:54:25;;;;;;;;;;;24.60;50.70;;;;;;7375055;19;20392;-77
2022/06/16 04:56:55;;;;;;;9.70;4.80;;;24.70;50.60;;;;;;7393358;19;19998;-77
2022/06/16 04:59:23;;;;;;;11.40;5.22;;;24.70;50.50;;;;;;7372373;19;20036;-77
2022/06/16 05:01:52;;;;;;;9.60;4.65;;;24.70;50.70;;;;;;7371413;19;20017;-77
2022/06/16 05:04:37;;;;;;;8.90;4.38;;;24.70;50.90;;;;;;7373024;19;20014;-77
2022/06/16 05:10:06;;;;;;;8.57;4.43;;;24.70;51.00;;;;;;7371200;19;20011;-77
2022/06/16 05:12:40;;;;;;;13.52;5.00;;;24.70;51.00;;;;;;7370651;19;20011;-76
2022/06/16 05:15:18;;;;;;;15.00;4.88;;;24.70;50.70;;;;;;7392780;19;20017;-77
2022/06/16 05:17:51;;;;;;;11.82;4.60;;;24.70;50.60;;;;;;7391637;19;20022;-77
2022/06/16 05:20:22;;;;;;;8.50;4.50;;;24.70;50.30;;;;;;7371292;19;20007;-78
2022/06/16 05:22:54;;;;;;;11.02;5.20;;;24.70;50.40;;;;;;7370227;19;20006;-77
2022/06/16 05:25:22;;;;;;;12.43;5.25;;;24.60;50.30;;;;;;7369380;19;20017;-77
2022/06/16 05:27:51;;;;;;;9.80;5.40;;;24.50;50.40;;;;;;7371992;19;20755;-77
2022/06/16 05:30:20;;;;;;;18.27;5.30;;;24.40;50.60;;;;;;7371620;19;20041;-77
2022/06/16 05:32:49;;;;;;;11.98;5.50;;;24.30;50.90;;;;;;7393827;19;20035;-77
2022/06/16 05:35:18;;;;;;;9.32;5.60;;;24.20;51.10;;;;;;7369947;19;20011;-77
2022/06/16 05:37:47;;;;;;;18.25;5.13;;;24.10;51.30;;;;;;7370239;19;20102;-77
2022/06/16 05:40:18;;;;;;;9.65;5.65;;;24.00;51.50;;;;;;7371128;19;20617;-77
2022/06/16 05:42:47;;;;;;;;;;;23.70;52.00;;;;;;7370725;19;20015;-77
2022/06/16 05:45:15;;;;;;;10.43;5.22;;;23.80;52.30;;;;;;7367675;19;19996;-77
2022/06/16 05:47:44;;;;;;;11.15;5.35;;;23.60;52.50;;;;;;7389489;19;20917;-77
2022/06/16 05:50:16;;;;;;;11.70;5.68;;;23.60;52.50;;;;;;7369536;19;20021;-77
2022/06/16 05:52:44;;;;;;;15.77;5.55;;;23.60;52.70;;;;;;7371089;19;20015;-78
2022/06/16 05:55:15;;;;;;;11.90;5.95;;;23.70;52.50;;;;;;7370012;19;20014;-77
2022/06/16 05:57:46;;;;;;;11.10;6.07;;;23.80;52.10;;;;;;7369390;19;20010;-77
2022/06/16 06:00:16;;;;;;;7.03;4.93;;;23.90;51.90;;;;;;7367778;19;20754;-77
2022/06/16 06:02:49;;;;;;;13.15;6.45;;;24.00;51.80;;;;;;7392242;19;20018;-78
2022/06/16 06:05:18;;;;;;;11.38;6.03;;;24.00;51.40;;;;;;7370996;19;20022;-77
2022/06/16 06:16:29;;;;;;;15.65;6.13;;;24.10;51.10;;;;;;7369625;19;20019;-79
2022/06/16 06:19:23;;;;;;;10.90;6.03;;;24.00;51.10;;;;;;7368722;19;20026;-78
2022/06/16 06:22:02;;;;;;;10.30;5.95;;;24.00;51.10;;;;;;7373390;19;20029;-78
2022/06/16 06:24:34;;;;;;;12.63;5.85;;;24.00;51.00;;;;;;7368636;19;20382;-77
2022/06/16 06:27:07;;;;;;;15.30;5.78;;;24.20;50.90;;;;;;7390104;19;20434;-79
2022/06/16 06:29:56;;;;;;;96.70;61.53;;;24.10;50.90;;;;;;7367083;19;20183;-76
2022/06/16 06:32:26;;;;;;;20.25;10.27;;;24.30;51.00;;;;;;7369047;19;20017;-78
2022/06/16 06:35:00;;;;;;;14.40;7.10;;;24.40;50.90;;;;;;7363312;19;20018;-77
2022/06/16 06:37:30;;;;;;;12.52;5.47;;;24.30;50.70;;;;;;7366471;19;20109;-78
2022/06/16 06:40:01;;;;;;;9.15;5.63;;;24.40;50.50;;;;;;7363434;19;20065;-77
2022/06/16 06:42:33;;;;;;;12.55;5.65;;;24.60;50.60;;;;;;7369597;19;20059;-77
2022/06/16 06:45:08;;;;;;;13.70;4.90;;;24.60;50.40;;;;;;7389959;19;20039;-77
2022/06/16 06:47:44;;;;;;;13.07;5.80;;;24.70;50.50;;;;;;7366507;19;20090;-75
2022/06/16 06:50:20;;;;;;;14.82;5.32;;;24.70;49.50;;;;;;7366226;19;20438;-77
2022/06/16 06:52:49;;;;;;;13.32;5.85;;;24.80;49.60;;;;;;7366614;19;20015;-77
2022/06/16 06:55:19;;;;;;;11.07;5.20;;;25.00;49.30;;;;;;7368999;19;20085;-77
2022/06/16 06:57:48;;;;;;;10.55;5.55;;;25.10;49.30;;;;;;7365822;19;20486;-78
2022/06/16 07:00:23;;;;;;;14.68;6.00;;;25.10;48.70;;;;;;7369294;19;20339;-77
2022/06/16 07:02:51;;;;;;;12.35;5.15;;;25.10;48.30;;;;;;7391322;19;20438;-77
2022/06/16 07:05:20;;;;;;;10.50;4.68;;;25.20;48.20;;;;;;7367510;19;20017;-78
2022/06/16 07:07:50;;;;;;;15.27;5.80;;;25.10;48.60;;;;;;7367305;19;20025;-77
2022/06/16 07:10:21;;;;;;;13.15;5.82;;;25.10;48.10;;;;;;7367885;19;20049;-77
2022/06/16 07:12:49;;;;;;;15.73;6.55;;;25.10;47.70;;;;;;7368992;19;20086;-78
2022/06/16 07:15:21;;;;;;;11.77;5.68;;;24.80;47.90;;;;;;7364631;19;20525;-77
2022/06/16 07:17:49;;;;;;;17.02;5.45;;;24.80;48.10;;;;;;7390203;19;20095;-78
2022/06/16 07:20:19;;;;;;;14.00;5.22;;;24.80;48.00;;;;;;7374892;19;20075;-77
2022/06/16 07:22:48;;;;;;;15.52;5.45;;;24.90;48.00;;;;;;7382255;19;20085;-78
2022/06/16 07:25:18;;;;;;;11.90;4.70;;;24.90;48.00;;;;;;7406589;19;20025;-78
2022/06/16 07:27:47;;;;;;;10.20;4.97;;;25.10;47.90;;;;;;7394714;19;20424;-78
2022/06/16 07:30:21;;;;;;;14.88;5.47;;;25.20;47.40;;;;;;7381726;19;20026;-77
2022/06/16 07:32:51;;;;;;;12.90;4.93;;;25.20;47.00;;;;;;7400516;19;20025;-77
2022/06/16 07:35:22;;;;;;;18.50;5.55;;;25.00;46.90;;;;;;7375998;19;20050;-77
2022/06/16 07:37:51;;;;;;;9.18;4.50;;;25.10;46.70;;;;;;7374946;19;20062;-77
2022/06/16 07:40:22;;;;;;;11.48;4.30;;;25.10;46.80;;;;;;7373902;19;20037;-76
2022/06/16 07:42:56;;;;;;;11.82;4.70;;;25.30;47.20;;;;;;7374780;19;20119;-76
2022/06/16 07:45:29;;;;;;;12.90;5.40;;;25.20;46.50;;;;;;7373230;19;20339;-77
2022/06/16 07:48:01;;;;;;;12.05;5.22;;;25.40;46.10;;;;;;7391765;19;20694;-77
2022/06/16 07:50:30;;;;;;;20.40;4.63;;;25.30;45.80;;;;;;7372854;19;20021;-77
2022/06/16 07:52:59;;;;;;;11.00;4.90;;;25.40;46.30;;;;;;7373444;19;20122;-77
2022/06/16 07:55:28;;;;;;;11.43;4.75;;;25.40;45.70;;;;;;7374848;19;20054;-78
2022/06/16 07:57:57;;;;;;;11.88;4.80;;;25.40;45.70;;;;;;7374382;19;20725;-78
2022/06/16 08:00:31;;;;;;;14.40;5.10;;;25.50;46.00;;;;;;7373700;19;20024;-78
2022/06/16 08:03:00;;;;;;;16.02;4.90;;;25.60;45.50;;;;;;7393527;19;20018;-77
2022/06/16 08:05:32;;;;;;;14.85;4.70;;;25.60;45.10;;;;;;7374361;19;20019;-78
2022/06/16 08:08:01;;;;;;;13.60;4.70;;;25.60;45.30;;;;;;7374641;19;20028;-78
2022/06/16 08:10:35;;;;;;;10.45;5.00;;;25.70;46.00;;;;;;7371885;19;20039;-77
2022/06/16 08:13:05;;;;;;;11.27;4.50;;;25.80;45.00;;;;;;7372899;19;20479;-77
2022/06/16 08:15:37;;;;;;;18.13;4.60;;;25.90;44.80;;;;;;7370242;19;20021;-77
2022/06/16 08:18:06;;;;;;;17.98;4.85;;;25.80;45.40;;;;;;7395882;19;20043;-78
2022/06/16 08:20:37;;;;;;;12.23;5.18;;;25.90;44.80;;;;;;7373388;19;20339;-77
2022/06/16 08:23:16;;;;;;;15.63;5.28;;;26.00;44.40;;;;;;7371100;19;20718;-76
2022/06/16 08:25:50;;;;;;;13.85;5.07;;;26.10;44.30;;;;;;7375114;19;20388;-77
2022/06/16 08:28:22;;;;;;;13.88;4.95;;;26.20;43.70;;;;;;7371376;19;20115;-77
2022/06/16 08:30:53;;;;;;;14.00;5.38;;;26.20;43.40;;;;;;7368976;19;20021;-77
2022/06/16 08:33:22;;;;;;;15.75;4.72;;;26.10;42.60;;;;;;7371137;19;20031;-78
2022/06/16 08:35:51;;;;;;;22.35;5.55;;;26.10;42.40;;;;;;7394791;19;20105;-77
2022/06/16 08:38:20;;;;;;;19.23;5.35;;;26.10;42.30;;;;;;7372266;19;20557;-77
2022/06/16 08:40:51;;;;;;;13.00;4.63;;;26.10;42.10;;;;;;7372334;19;20023;-77
2022/06/16 08:43:28;;;;;;;13.60;5.32;;;26.20;43.20;;;;;;7371506;19;20015;-76
2022/06/16 08:46:03;;;;;;;10.65;4.53;;;26.30;41.50;;;;;;7371056;19;20033;-77
2022/06/16 08:48:43;;;;;;;16.23;4.40;;;26.30;41.70;;;;;;7370942;19;20565;-77
2022/06/16 08:51:21;;;;;;;15.55;4.93;;;26.40;41.60;;;;;;7371283;19;20351;-77
2022/06/16 08:54:13;;;;;;;18.65;5.13;;;26.30;41.20;;;;;;7394314;19;20022;-77
2022/06/16 08:56:50;;;;;;;16.25;4.93;;;26.40;41.60;;;;;;7364020;19;20019;-78
2022/06/16 08:59:31;;;;;;;16.40;5.10;;;26.50;41.10;;;;;;7370764;19;20017;-78
2022/06/16 09:02:08;;;;;;;10.85;4.15;;;26.50;41.00;;;;;;7370827;19;20105;-77
2022/06/16 09:04:40;;;;;;;14.07;4.40;;;26.50;40.60;;;;;;7370432;19;20013;-77
2022/06/16 09:07:19;;;;;;;11.90;4.57;;;26.50;40.10;;;;;;7372048;19;20090;-78
2022/06/16 09:13:09;;;;;;;12.77;4.75;;;26.60;40.00;;;;;;7369874;19;20097;-78
2022/06/16 09:15:44;;;;;;;12.32;4.50;;;26.60;39.90;;;;;;7367873;19;20099;-77
2022/06/16 09:18:35;;;;;;;13.23;4.78;;;26.60;40.10;;;;;;7372490;19;20024;-77
2022/06/16 09:21:16;;;;;;;17.08;4.80;;;26.70;39.80;;;;;;7394084;19;20090;-80
2022/06/16 09:24:14;;;;;;;16.50;5.05;;;26.70;39.80;;;;;;7372114;19;20401;-78
2022/06/16 09:26:49;;;;;;;14.25;4.68;;;26.80;39.80;;;;;;7370470;19;20015;-78
2022/06/16 09:29:23;;;;;;;10.45;5.05;;;26.90;39.90;;;;;;7368906;19;20109;-79
2022/06/16 09:31:57;;;;;;;17.05;5.40;;;27.00;38.80;;;;;;7368407;19;20020;-78
2022/06/16 09:34:36;;;;;;;16.02;4.65;;;26.90;38.70;;;;;;7369751;19;20357;-78
2022/06/16 09:37:09;;;;;;;9.30;4.50;;;27.00;37.90;;;;;;7372017;19;20033;-78
2022/06/16 09:39:41;;;;;;;10.85;4.70;;;26.90;38.30;;;;;;7369966;19;20059;-78
2022/06/16 09:45:03;;;;;;;15.30;5.00;;;27.00;39.20;;;;;;7399864;19;20045;-78
2022/06/16 09:47:37;;;;;;;13.82;4.43;;;27.10;38.40;;;;;;7369851;19;20019;-78
2022/06/16 09:50:18;;;;;;;13.80;4.60;;;27.10;38.40;;;;;;7369059;19;20101;-78
2022/06/16 09:52:53;;;;;;;15.30;5.25;;;27.10;38.40;;;;;;7370215;19;20014;-78
2022/06/16 09:55:27;;;;;;;12.27;4.50;;;27.20;38.10;;;;;;7372293;19;20034;-78
2022/06/16 09:58:02;;;;;;;9.02;4.38;;;27.30;38.10;;;;;;7368939;19;20337;-78
2022/06/16 10:00:36;;;;;;;13.90;4.30;;;27.30;38.90;;;;;;7371147;19;20124;-78
2022/06/16 10:03:21;;;;;;;12.13;4.95;;;27.30;39.20;;;;;;7389844;19;20022;-78
2022/06/16 10:06:14;;;;;;;12.40;5.03;;;27.40;38.80;;;;;;7371263;19;20541;-79
2022/06/16 10:08:56;;;;;;;15.20;4.80;;;27.30;37.80;;;;;;7369283;19;20032;-80
2022/06/16 10:11:36;;;;;;;12.15;4.18;;;27.20;38.80;;;;;;7368037;19;20020;-78
2022/06/16 10:14:14;;;;;;;11.52;4.93;;;27.20;39.00;;;;;;7369924;19;20371;-79
2022/06/16 10:16:52;;;;;;;13.48;5.20;;;27.40;38.40;;;;;;7369211;19;20006;-76
2022/06/16 10:19:21;;;;;;;11.52;4.90;;;27.30;38.20;;;;;;7371025;19;20025;-76
2022/06/16 10:21:53;;;;;;;10.00;4.35;;;27.40;37.70;;;;;;7370733;19;20013;-77
2022/06/16 10:24:26;;;;;;;12.55;5.00;;;27.60;37.50;;;;;;7370027;19;20085;-77
2022/06/16 10:26:56;;;;;;;10.73;4.82;;;27.70;36.80;;;;;;7383527;19;20026;-78
2022/06/16 10:29:28;;;;;;;8.88;4.60;;;27.80;36.50;;;;;;7370875;19;20082;-79
2022/06/16 10:31:58;;;;;;;11.00;4.10;;;27.80;37.30;;;;;;7369783;19;20015;-79
2022/06/16 10:34:32;;;;;;;9.13;4.00;;;27.80;36.70;;;;;;7370308;19;20396;-78
2022/06/16 10:37:12;;;;;;;13.40;3.78;;;27.60;36.50;;;;;;7370425;19;20668;-79
2022/06/16 10:39:45;;;;;;;10.50;3.67;;;27.70;35.90;;;;;;7370698;19;20370;-84
2022/06/16 10:42:20;;;;;;;10.68;4.15;;;27.80;36.30;;;;;;7373679;19;20018;-79
2022/06/16 10:44:53;;;;;;;8.90;3.95;;;27.80;34.50;;;;;;7398712;19;20014;-78
2022/06/16 10:47:26;;;;;;;9.35;4.03;;;27.90;34.70;;;;;;7374600;19;20011;-83
2022/06/16 10:49:56;;;;;;;7.57;3.80;;;28.00;34.50;;;;;;7375175;19;20027;-80
2022/06/16 10:52:33;;;;;;;11.95;5.30;;;28.10;34.40;;;;;;7377781;19;20010;-79
2022/06/16 10:55:07;;;;;;;12.27;5.57;;;28.00;34.70;;;;;;7385299;19;20033;-80
2022/06/16 10:57:44;;;;;;;15.02;3.80;;;28.10;34.80;;;;;;7387881;19;20027;-78
2022/06/16 11:00:18;;;;;;;10.13;3.30;;;28.20;34.90;;;;;;7387018;19;20007;-81
2022/06/16 11:03:04;;;;;;;8.20;3.35;;;28.20;34.50;;;;;;7411887;19;20014;-80
2022/06/16 11:05:35;;;;;;;9.40;3.20;;;28.30;33.60;;;;;;7386763;19;20050;-81
2022/06/16 11:08:14;;;;;;;7.80;3.05;;;28.20;32.20;;;;;;7400944;19;20027;-80
2022/06/16 11:10:52;;;;;;;9.18;3.00;;;28.20;32.50;;;;;;7404470;19;20010;-80
2022/06/16 11:13:28;;;;;;;5.72;3.22;;;28.30;33.40;;;;;;7403898;19;20011;-79
2022/06/16 11:15:57;;;;;;;10.02;2.92;;;28.40;33.90;;;;;;7401194;19;20018;-80
2022/06/16 11:18:28;;;;;;;5.95;2.58;;;28.50;34.10;;;;;;7412635;19;20095;-78
2022/06/16 11:20:59;;;;;;;;;;;28.60;33.50;;;;;;7413506;19;20027;-80
2022/06/16 11:23:34;;;;;;;7.13;2.53;;;28.70;31.00;;;;;;7353651;19;19923;-81
2022/06/16 11:26:10;;;;;;;5.38;2.70;;;28.70;29.90;;;;;;7396982;19;20018;-80
2022/06/16 11:28:45;;;;;;;4.75;2.60;;;28.60;30.00;;;;;;7162888;19;20040;-80
2022/06/16 11:31:22;;;;;;;12.38;2.88;;;28.60;30.60;;;;;;7163533;19;20010;-81
2022/06/16 11:34:09;;;;;;;11.77;2.58;;;28.60;30.40;;;;;;7387982;19;20058;-81
2022/06/16 11:37:01;;;;;;;6.75;2.50;;;28.70;31.20;;;;;;7405403;19;20038;-80
2022/06/16 11:39:47;;;;;;;8.23;2.78;;;28.80;31.70;;;;;;7407466;19;20022;-86
2022/06/16 11:42:28;;;;;;;8.82;3.15;;;28.90;31.60;;;;;;7384390;19;20047;-78
2022/06/16 11:45:06;;;;;;;7.28;3.30;;;28.90;30.90;;;;;;7373563;19;20068;-79
2022/06/16 11:47:50;;;;;;;5.22;3.03;;;28.90;30.00;;;;;;7367463;19;20043;-77
2022/06/16 11:50:30;;;;;;;8.50;2.90;;;28.90;30.80;;;;;;7363893;19;20031;-77
2022/06/16 11:53:11;;;;;;;7.38;2.55;;;28.90;30.60;;;;;;7363844;19;20039;-77
2022/06/16 11:55:51;;;;;;;8.48;2.83;;;29.00;31.80;;;;;;7364636;19;20036;-77
2022/06/16 11:58:50;;;;;;;5.10;2.85;;;28.90;31.10;;;;;;7365588;19;20018;-77
2022/06/16 12:01:24;;;;;;;7.63;2.55;;;29.00;31.80;;;;;;7364666;19;20036;-77
2022/06/16 12:04:04;;;;;;;8.20;2.70;;;29.00;30.00;;;;;;7362770;19;20093;-77
2022/06/16 12:06:51;;;;;;;3.77;2.30;;;28.90;30.00;;;;;;7387911;19;20328;-77
2022/06/16 12:09:28;;;;;;;7.00;2.42;;;29.00;30.00;;;;;;7370146;19;20263;-77
2022/06/16 12:12:08;;;;;;;6.25;2.38;;;29.00;30.60;;;;;;7374785;19;20022;-77
2022/06/16 12:14:47;;;;;;;5.57;2.50;;;29.00;29.40;;;;;;7371326;19;20094;-77
2022/06/16 12:17:24;;;;;;;5.30;2.60;;;29.10;30.00;;;;;;7372388;19;20018;-77
2022/06/16 12:19:59;;;;;;;4.72;2.63;;;29.20;31.00;;;;;;7370761;19;20609;-77
2022/06/16 12:22:38;;;;;;;3.40;2.55;;;29.20;30.90;;;;;;7373070;19;20044;-77
2022/06/16 12:25:12;;;;;;;6.25;2.60;;;29.30;31.10;;;;;;7371504;19;20023;-80
2022/06/16 12:27:54;;;;;;;4.75;2.80;;;29.30;30.30;;;;;;7369772;19;20014;-79
2022/06/16 12:30:25;;;;;;;8.85;3.40;;;29.10;30.70;;;;;;7394917;19;20022;-80
2022/06/16 12:33:03;;;;;;;4.18;2.53;;;29.20;30.70;;;;;;7375482;19;20050;-80
2022/06/16 12:35:43;;;;;;;8.60;3.50;;;29.30;31.30;;;;;;7374461;19;20022;-81
2022/06/16 12:38:19;;;;;;;7.07;2.75;;;29.40;30.90;;;;;;7373745;19;20018;-81
2022/06/16 12:40:52;;;;;;;7.32;2.97;;;29.50;31.10;;;;;;7375710;19;20471;-81
2022/06/16 12:43:28;;;;;;;9.70;3.03;;;29.50;30.80;;;;;;7370351;19;20011;-77
2022/06/16 12:46:04;;;;;;;6.80;2.90;;;29.60;31.40;;;;;;7370712;19;20726;-80
2022/06/16 12:48:37;;;;;;;6.70;2.78;;;29.60;31.00;;;;;;7392735;19;20018;-80
2022/06/16 12:51:10;;;;;;;8.50;2.85;;;29.70;32.70;;;;;;7372475;19;20011;-80
2022/06/16 12:53:44;;;;;;;6.80;2.90;;;29.80;32.70;;;;;;7372735;19;20011;-81
2022/06/16 12:56:23;;;;;;;9.10;3.10;;;29.90;31.50;;;;;;7371243;19;20015;-81
2022/06/16 12:59:00;;;;;;;8.05;2.88;;;30.00;31.70;;;;;;7371741;19;20082;-82
2022/06/16 13:01:29;;;;;;;7.72;2.47;;;30.10;31.60;;;;;;7372780;19;20014;-81
2022/06/16 13:04:04;;;;;;;9.60;2.97;;;30.10;31.60;;;;;;7370647;19;20493;-81
2022/06/16 13:06:34;;;;;;;6.55;2.42;;;30.20;32.00;;;;;;7392867;19;20535;-80
2022/06/16 13:09:06;;;;;;;6.27;2.47;;;30.30;31.90;;;;;;7371666;19;20323;-81
2022/06/16 13:11:38;;;;;;;6.57;2.50;;;30.40;31.30;;;;;;7371182;19;20042;-81
2022/06/16 13:14:16;;;;;;;5.05;2.60;;;30.50;31.20;;;;;;7373593;19;20026;-80
2022/06/16 13:16:49;;;;;;;6.85;2.67;;;30.60;31.20;;;;;;7371177;19;20019;-80
2022/06/16 13:19:22;;;;;;;5.85;2.50;;;30.70;31.10;;;;;;7368242;19;20010;-81
2022/06/16 13:21:54;;;;;;;4.85;2.53;;;30.70;31.20;;;;;;7371580;19;20025;-80
2022/06/16 13:24:55;;;;;;;5.40;2.22;;;30.80;30.90;;;;;;7390116;19;20014;-81
2022/06/16 13:28:09;;;;;;;6.32;2.45;;;30.90;30.60;;;;;;7364990;19;20441;-81
2022/06/16 13:31:29;;;;;;;4.57;2.30;;;30.90;32.00;;;;;;7367892;19;20010;-80
2022/06/16 13:34:27;;;;;;;4.38;2.35;;;31.00;31.30;;;;;;7362132;19;20566;-81
2022/06/16 13:37:10;;;;;;;9.27;2.53;;;31.10;30.90;;;;;;7363590;19;20420;-80
2022/06/16 13:40:00;;;;;;;7.78;2.45;;;31.20;30.80;;;;;;7382247;19;20048;-80
2022/06/16 13:42:50;;;;;;;4.30;2.67;;;31.20;30.60;;;;;;7367391;19;20019;-81
2022/06/16 13:45:28;;;;;;;7.43;2.97;;;31.30;30.80;;;;;;7367596;19;20022;-79